WetterOnline ( https://www.wetteronline.de )

Wetter aktuell Wittenberge

Aktuelles Wetter: Seehausen (23m)

6-stündlich | Neueste Meldungen
Ortszeit Temperatur Wetter
Sa, 01.10. 8:00 10.3° C bedeckt
Sa, 01.10. 2:00 7.8° C wolkig
Fr, 30.09. 20:00 10.3° C wolkenlos
Fr, 30.09. 14:00 16.4° C leicht bewölkt
Fr, 30.09. 8:00 3.3° C wolkenlos
Fr, 30.09. 2:00 5.6° C fast wolkenlos
Do, 29.09. 20:00 9.7° C bewölkt
Do, 29.09. 14:00 14.5° C wolkig
Ortszeit Temperatur Wetter
Sa, 01.10. 13:00 10.7° C bedeckt
Sa, 01.10. 12:40 10.6° C leichter Regen
Sa, 01.10. 12:30 10.8° C Regen
Sa, 01.10. 12:20 10.8° C Regen
Sa, 01.10. 12:10 11.2° C leichter Regen
Sa, 01.10. 12:00 11.0° C bedeckt
Sa, 01.10. 11:50 11.0° C bedeckt
Sa, 01.10. 11:30 10.6° C bewölkt
Sa, 01.10. 11:00 10.3° C leichter Regen
Sa, 01.10. 10:30 10.0° C leichter Regen
Sa, 01.10. 10:00 9.7° C leichter Regen
Ortszeit Relative Feuchte Sichtweite
Sa, 01.10. 8:00 73% 45 km
Sa, 01.10. 2:00 80% 45 km
Fr, 30.09. 20:00 75% 55 km
Fr, 30.09. 14:00 51% 30 km
Fr, 30.09. 8:00 95% 5.0 km
Fr, 30.09. 2:00 97% 11 km
Do, 29.09. 20:00 89% 50 km
Do, 29.09. 14:00 63% 35 km
Ortszeit Relative Feuchte Sichtweite
Sa, 01.10. 13:00 92% 28 km
Sa, 01.10. 12:40 92% -
Sa, 01.10. 12:30 87% 7 km
Sa, 01.10. 12:20 87% -
Sa, 01.10. 12:10 83% -
Sa, 01.10. 12:00 85% 40 km
Sa, 01.10. 11:50 85% -
Sa, 01.10. 11:30 86% 40 km
Sa, 01.10. 11:00 88% 24 km
Sa, 01.10. 10:30 87% 12 km
Sa, 01.10. 10:00 87% 19 km
Ortszeit Niederschlagsmenge Niederschlagsart
Sa, 01.10. 8:00 0.0 l/m2 in 12 Std. -
Sa, 01.10. 2:00 0.0 l/m2 in 6 Std. -
Fr, 30.09. 20:00 0.0 l/m2 in 12 Std. -
Fr, 30.09. 14:00 0.0 l/m2 in 6 Std. -
Fr, 30.09. 8:00 0.0 l/m2 in 12 Std. -
Fr, 30.09. 2:00 0.0 l/m2 in 6 Std. -
Do, 29.09. 20:00 0.0 l/m2 in 12 Std. -
Do, 29.09. 14:00 0.0 l/m2 in 6 Std. -
Ortszeit Niederschlagsmenge Niederschlagsart
Sa, 01.10. 13:00 <0.05 l/m2 in 1 Std. Regen
Sa, 01.10. 12:40 keine Meldung -
Sa, 01.10. 12:30 <0.05 l/m2 in 1 Std. -
Sa, 01.10. 12:20 keine Meldung -
Sa, 01.10. 12:10 keine Meldung -
Sa, 01.10. 12:00 <0.05 l/m2 in 1 Std. Regen
Sa, 01.10. 11:50 keine Meldung -
Sa, 01.10. 11:30 <0.05 l/m2 in 1 Std. Schneeregen
Sa, 01.10. 11:00 <0.05 l/m2 in 1 Std. Regen
Sa, 01.10. 10:30 <0.05 l/m2 in 1 Std. -
Sa, 01.10. 10:00 <0.05 l/m2 in 1 Std. Regen
Ortszeit Stärke Spitze Richtung
km/h Bft. km/h Grad Sektor
Sa, 01.10. 8:00 18 3 36 170° S
Sa, 01.10. 2:00 11 2 18 160° S
Fr, 30.09. 20:00 7 2 29 180° S
Fr, 30.09. 14:00 14 3 29 200° S
Fr, 30.09. 8:00 4 1 11 150° SO
Fr, 30.09. 2:00 4 1 18 160° S
Do, 29.09. 20:00 4 1 25 160° S
Do, 29.09. 14:00 11 2 24 230° SW
Ortszeit Stärke Spitze Richtung
km/h Bft. km/h Grad Sektor
Sa, 01.10. 13:00 18 3 36 200° S
Sa, 01.10. 12:40 18 3 - 190° S
Sa, 01.10. 12:30 18 3 36 190° S
Sa, 01.10. 12:20 18 3 - 190° S
Sa, 01.10. 12:10 18 3 - 180° S
Sa, 01.10. 12:00 18 3 36 190° S
Sa, 01.10. 11:50 18 3 - 190° S
Sa, 01.10. 11:30 19 3 37 180° S
Sa, 01.10. 11:00 20 4 35 180° S
Sa, 01.10. 10:30 18 3 36 170° S
Sa, 01.10. 10:00 14 3 29 160° S
Ortszeit Untergrenze Bedeckung Gattung
total tief tief mittel hoch
Sa, 01.10. 8:00 3000 m 8/8 8/8 - - -
Sa, 01.10. 2:00 9000 m 8/8 0/8 - - -
Fr, 30.09. 20:00 - 0/8 0/8 - - -
Fr, 30.09. 14:00 1110 m 2/8 2/8 - - -
Fr, 30.09. 8:00 - 0/8 0/8 - - -
Fr, 30.09. 2:00 8100 m 2/8 0/8 - - -
Do, 29.09. 20:00 2100 m 8/8 7/8 - - -
Do, 29.09. 14:00 750 m 5/8 5/8 - - -
Ortszeit Bedeckungsgrad in Achtel und Wolkenuntergrenze
Sa, 01.10. 13:00 8(480m)
Sa, 01.10. 12:40 8
Sa, 01.10. 12:30 6(540m) 7(660m) 8(870m)
Sa, 01.10. 12:20 6(540m) 7(660m) 8(870m)
Sa, 01.10. 12:10 8
Sa, 01.10. 12:00 2(540m) 8(780m)
Sa, 01.10. 11:50 2(540m) 8(780m)
Sa, 01.10. 11:30 4(570m) 7(840m)
Sa, 01.10. 11:00 1(630m) 7(900m) 8(1500m)
Sa, 01.10. 10:30 5(1020m) 5(1230m) 7(1500m)
Sa, 01.10. 10:00 4(1380m) 7(1500m) 8(2100m)
Ortszeit Luftdruck NN (hPa) Tendenz (hPa in 3 Std.)
Sa, 01.10. 8:00 1006 - 2,1
Sa, 01.10. 2:00 1009 - 1,0
Fr, 30.09. 20:00 1011 - 0,1
Fr, 30.09. 14:00 1011 - 0,3
Fr, 30.09. 8:00 1010 + 1,5
Fr, 30.09. 2:00 1008 + 0,9
Do, 29.09. 20:00 1005 + 1,7
Do, 29.09. 14:00 1003 + 0,8
Ortszeit Luftdruck NN (hPa) Tendenz (hPa in 3 Std.)
Sa, 01.10. 13:00 1003 - 1,1
Sa, 01.10. 12:40 1003 keine Meldung
Sa, 01.10. 12:30 1003 - 1,6
Sa, 01.10. 12:20 1003 keine Meldung
Sa, 01.10. 12:10 1003 keine Meldung
Sa, 01.10. 12:00 1003 - 2,1
Sa, 01.10. 11:50 1003 keine Meldung
Sa, 01.10. 11:30 1003 - 2,3
Sa, 01.10. 11:00 1003 - 2,5
Sa, 01.10. 10:30 1003 - 2,5
Sa, 01.10. 10:00 1004 - 2,4
Ortszeit Schneehöhe (cm)
Sa, 01.10. 8:00 0
Sa, 01.10. 2:00 0
Fr, 30.09. 20:00 0
Fr, 30.09. 14:00 0
Fr, 30.09. 8:00 0
Fr, 30.09. 2:00 0
Do, 29.09. 20:00 0
Do, 29.09. 14:00 0
Ortszeit Schneehöhe (cm)
Sa, 01.10. 13:00 0
Sa, 01.10. 12:40 0
Sa, 01.10. 12:30 0
Sa, 01.10. 12:20 0
Sa, 01.10. 12:10 0
Sa, 01.10. 12:00 0
Sa, 01.10. 11:50 0
Sa, 01.10. 11:30 0
Sa, 01.10. 11:00 0
Sa, 01.10. 10:30 0
Sa, 01.10. 10:00 0
Link zu dieser Seite / Seite empfehlen

Das Wetter in ...